createdAt,value
2019-04-07T00:01:28.406Z,92.80
2019-04-07T00:03:58.997Z,89.03
2019-04-07T00:06:29.452Z,85.53
2019-04-07T00:08:59.407Z,104.57
2019-04-07T00:11:29.139Z,100.13
2019-04-07T00:13:58.953Z,97.53
2019-04-07T00:16:28.703Z,101.57
2019-04-07T00:18:58.580Z,100.13
2019-04-07T00:21:28.379Z,87.13
2019-04-07T00:23:58.284Z,103.13
2019-04-07T00:26:28.133Z,96.53
2019-04-07T00:28:58.648Z,91.77
2019-04-07T00:31:28.926Z,111.63
2019-04-07T00:33:59.336Z,100.33
2019-04-07T00:36:29.120Z,101.70
2019-04-07T00:38:59.452Z,103.30
2019-04-07T00:41:29.873Z,97.83
2019-04-07T00:44:00.013Z,106.60
2019-04-07T00:46:29.777Z,108.30
2019-04-07T00:48:59.619Z,111.63
2019-04-07T00:51:29.377Z,107.70
2019-04-07T00:53:59.737Z,100.70
2019-04-07T00:56:30.054Z,108.67
2019-04-07T00:58:59.990Z,105.40
2019-04-07T01:01:29.807Z,106.70
2019-04-07T01:03:59.893Z,105.17
2019-04-07T01:06:29.789Z,112.27
2019-04-07T01:09:00.248Z,108.77
2019-04-07T01:11:30.032Z,108.20
2019-04-07T01:13:59.808Z,109.67
2019-04-07T01:16:30.061Z,117.37
2019-04-07T01:18:59.942Z,107.40
2019-04-07T01:21:30.302Z,114.03
2019-04-07T01:24:00.132Z,116.57
2019-04-07T01:26:29.891Z,99.90
2019-04-07T01:29:00.212Z,99.43
2019-04-07T01:31:29.986Z,118.57
2019-04-07T01:33:59.755Z,101.90
2019-04-07T01:36:29.567Z,104.90
2019-04-07T01:38:59.975Z,103.47
2019-04-07T01:41:37.410Z,104.97
2019-04-07T01:44:24.376Z,101.93
2019-04-07T01:46:56.052Z,89.43
2019-04-07T01:49:45.440Z,88.40
2019-04-07T01:52:17.311Z,97.77
2019-04-07T01:55:04.902Z,98.67
2019-04-07T01:57:36.417Z,96.93
2019-04-07T02:00:11.581Z,98.57
2019-04-07T02:02:42.952Z,97.13
2019-04-07T02:05:30.895Z,93.80
2019-04-07T02:08:11.152Z,100.00
2019-04-07T02:10:48.476Z,91.50
2019-04-07T02:13:20.717Z,95.60
2019-04-07T02:16:09.200Z,92.87
2019-04-07T02:18:40.727Z,98.13
2019-04-07T02:21:23.915Z,97.67
2019-04-07T02:23:55.947Z,99.07
2019-04-07T02:26:30.170Z,91.47
2019-04-07T02:29:08.023Z,104.37
2019-04-07T02:31:42.364Z,103.20
2019-04-07T02:34:20.700Z,97.90
2019-04-07T02:37:08.552Z,94.53
2019-04-07T02:39:40.740Z,97.37
2019-04-07T02:42:25.083Z,102.03
2019-04-07T02:45:09.077Z,99.30
2019-04-07T02:47:43.461Z,97.47
2019-04-07T02:50:18.021Z,103.33
2019-04-07T02:53:07.633Z,96.70
2019-04-07T02:55:55.418Z,96.70
2019-04-07T02:58:32.851Z,93.47
2019-04-07T03:01:04.400Z,107.50
2019-04-07T03:03:51.138Z,99.10
2019-04-07T03:06:40.432Z,95.73
2019-04-07T03:09:11.007Z,103.33
2019-04-07T03:11:42.831Z,93.63
2019-04-07T03:14:14.454Z,93.87
2019-04-07T03:17:02.408Z,92.13
2019-04-07T03:19:46.740Z,99.33
2019-04-07T03:22:21.097Z,99.90
2019-04-07T03:25:08.812Z,103.27
2019-04-07T03:27:57.297Z,100.07
2019-04-07T03:30:45.346Z,104.03
2019-04-07T03:33:22.689Z,101.77
2019-04-07T03:36:01.769Z,102.33
2019-04-07T03:38:41.060Z,88.90
2019-04-07T03:41:29.006Z,100.43
2019-04-07T03:44:07.713Z,98.40
2019-04-07T03:46:48.237Z,97.80
2019-04-07T03:49:20.083Z,94.47
2019-04-07T03:52:04.676Z,99.17
2019-04-07T03:54:46.555Z,102.83
2019-04-07T03:57:18.077Z,112.23
2019-04-07T04:00:05.978Z,93.33
2019-04-07T04:02:41.001Z,97.73
2019-04-07T04:05:18.942Z,96.57
2019-04-07T04:07:50.422Z,100.23
2019-04-07T04:10:24.527Z,107.33
2019-04-07T04:12:56.599Z,95.47
2019-04-07T04:15:40.294Z,109.93
2019-04-07T04:18:10.091Z,103.77
2019-04-07T04:20:40.802Z,95.67
2019-04-07T04:23:11.619Z,109.37
2019-04-07T04:25:42.904Z,102.57
2019-04-07T04:28:12.945Z,108.47
2019-04-07T04:30:42.693Z,107.13
2019-04-07T04:33:12.568Z,107.27
2019-04-07T04:35:42.839Z,105.33
2019-04-07T04:38:12.664Z,114.27
2019-04-07T04:40:42.772Z,116.80
2019-04-07T04:43:13.744Z,100.23
2019-04-07T04:45:43.800Z,103.97
2019-04-07T04:48:13.784Z,109.43
2019-04-07T04:50:44.001Z,112.33
2019-04-07T04:53:13.897Z,120.37
2019-04-07T04:55:43.965Z,105.57
2019-04-07T04:58:13.847Z,117.40
2019-04-07T05:00:44.541Z,105.60
2019-04-07T05:03:14.973Z,116.47
2019-04-07T05:05:45.670Z,113.77
2019-04-07T05:08:16.213Z,122.97
2019-04-07T05:10:46.012Z,115.47
2019-04-07T05:13:16.022Z,113.43
2019-04-07T05:15:45.981Z,109.83
2019-04-07T05:18:16.578Z,105.77
2019-04-07T05:20:46.424Z,113.43
2019-04-07T05:23:16.258Z,104.80
2019-04-07T05:25:45.991Z,108.40
2019-04-07T05:28:15.758Z,114.80
2019-04-07T05:30:46.898Z,114.60
2019-04-07T05:33:16.701Z,115.77
2019-04-07T05:35:46.434Z,114.80
2019-04-07T05:38:16.316Z,114.23
2019-04-07T05:40:46.300Z,118.17
2019-04-07T05:43:16.198Z,109.20
2019-04-07T05:45:46.400Z,112.57
2019-04-07T05:48:18.513Z,118.17
2019-04-07T05:50:48.740Z,111.43
2019-04-07T05:53:19.016Z,110.10
2019-04-07T05:55:50.094Z,103.37
2019-04-07T05:58:21.180Z,112.33
2019-04-07T06:00:50.939Z,102.50
2019-04-07T06:03:20.783Z,95.50
2019-04-07T06:05:51.303Z,100.67
2019-04-07T06:08:29.454Z,95.87
2019-04-07T06:10:56.817Z,88.50
2019-04-07T06:13:24.735Z,89.13
2019-04-07T06:15:54.982Z,79.67
2019-04-07T06:18:24.953Z,75.67
2019-04-07T06:20:54.766Z,78.57
2019-04-07T06:23:26.006Z,75.40
2019-04-07T06:25:58.984Z,70.30
2019-04-07T06:28:28.136Z,71.80
2019-04-07T06:31:00.263Z,73.37
2019-04-07T06:33:29.846Z,74.93
2019-04-07T06:36:00.450Z,70.17
2019-04-07T06:38:34.172Z,70.13
2019-04-07T06:41:02.999Z,77.27
2019-04-07T06:43:35.171Z,76.60
2019-04-07T06:46:27.071Z,77.93
2019-04-07T06:49:11.273Z,73.50
2019-04-07T06:51:55.712Z,86.90
2019-04-07T06:54:37.848Z,78.43
2019-04-07T06:57:25.503Z,79.70
2019-04-07T07:00:02.532Z,84.87
2019-04-07T07:02:36.838Z,81.77
2019-04-07T07:05:14.418Z,86.67
2019-04-07T07:07:49.749Z,77.37
2019-04-07T07:10:29.064Z,80.00
2019-04-07T07:13:02.868Z,77.43
2019-04-07T07:15:49.449Z,78.37
2019-04-07T07:18:22.911Z,75.47
2019-04-07T07:20:53.918Z,87.57
2019-04-07T07:23:28.630Z,86.20
2019-04-07T07:26:00.883Z,86.13
2019-04-07T07:28:29.945Z,77.17
2019-04-07T07:31:00.076Z,79.43
2019-04-07T07:33:29.810Z,83.10
2019-04-07T07:35:59.684Z,74.90
2019-04-07T07:38:32.115Z,73.27
2019-04-07T07:41:02.648Z,76.37
2019-04-07T07:43:32.499Z,70.60
2019-04-07T07:46:03.096Z,76.60
2019-04-07T07:48:32.935Z,73.07
2019-04-07T07:51:03.978Z,72.17
2019-04-07T07:53:33.878Z,76.43
2019-04-07T07:56:08.436Z,68.13
2019-04-07T07:58:35.542Z,67.33
2019-04-07T08:01:05.536Z,65.87
2019-04-07T08:03:36.043Z,77.07
2019-04-07T08:06:08.248Z,63.30
2019-04-07T08:08:37.999Z,66.80
2019-04-07T08:11:07.749Z,67.67
2019-04-07T08:13:43.528Z,64.53
2019-04-07T08:16:09.759Z,66.00
2019-04-07T08:18:43.525Z,67.90
2019-04-07T08:21:12.477Z,72.33
2019-04-07T08:23:44.607Z,67.37
2019-04-07T08:26:14.670Z,65.00
2019-04-07T08:28:45.053Z,63.40
2019-04-07T08:31:17.711Z,63.07
2019-04-07T08:33:48.178Z,56.23
2019-04-07T08:36:18.301Z,61.30
2019-04-07T08:38:51.761Z,58.87
2019-04-07T08:41:19.544Z,65.67
2019-04-07T08:43:53.242Z,52.00
2019-04-07T08:46:20.731Z,52.70
2019-04-07T08:48:54.270Z,50.93
2019-04-07T08:51:24.208Z,58.17
2019-04-07T08:53:57.441Z,60.60
2019-04-07T08:56:27.771Z,50.90
2019-04-07T08:58:57.930Z,54.20
2019-04-07T09:01:29.615Z,52.00
2019-04-07T09:03:59.833Z,47.33
2019-04-07T09:06:30.381Z,46.50
2019-04-07T09:09:00.424Z,64.03
2019-04-07T09:11:30.412Z,60.80
2019-04-07T09:14:00.271Z,56.33
2019-04-07T09:16:34.408Z,53.47
2019-04-07T09:19:23.923Z,52.73
2019-04-07T09:22:10.553Z,62.13
2019-04-07T09:24:45.119Z,56.17
2019-04-07T09:27:19.397Z,52.63
2019-04-07T09:30:10.082Z,55.20
2019-04-07T09:32:41.673Z,60.30
2019-04-07T09:35:29.782Z,52.80
2019-04-07T09:38:01.974Z,53.27
2019-04-07T09:40:39.385Z,59.90
2019-04-07T09:43:13.999Z,55.40
2019-04-07T09:45:52.901Z,58.80
2019-04-07T09:48:33.516Z,61.40
2019-04-07T09:51:20.926Z,54.43
2019-04-07T09:53:52.323Z,59.63
2019-04-07T09:56:33.645Z,63.47
2019-04-07T09:59:20.330Z,64.33
2019-04-07T10:02:00.933Z,58.23
2019-04-07T10:04:38.538Z,62.00
2019-04-07T10:07:25.867Z,54.67
2019-04-07T10:10:12.363Z,61.40
2019-04-07T10:12:39.272Z,61.80
2019-04-07T10:15:27.215Z,64.00
2019-04-07T10:17:58.809Z,59.57
2019-04-07T10:20:48.002Z,61.13
2019-04-07T10:23:21.982Z,61.47
2019-04-07T10:25:56.154Z,58.30
2019-04-07T10:28:33.479Z,66.40
2019-04-07T10:31:21.006Z,70.73
2019-04-07T10:33:56.258Z,62.37
2019-04-07T10:36:40.666Z,62.90
2019-04-07T10:39:27.558Z,62.83
2019-04-07T10:42:05.464Z,62.57
2019-04-07T10:44:43.389Z,65.20
2019-04-07T10:47:18.378Z,62.33
2019-04-07T10:50:06.215Z,61.67
2019-04-07T10:52:51.325Z,64.37
2019-04-07T10:55:22.723Z,72.07
2019-04-07T10:58:10.614Z,66.73
2019-04-07T11:00:50.648Z,67.03
2019-04-07T11:03:32.948Z,69.87
2019-04-07T11:06:13.762Z,63.60
2019-04-07T11:08:45.545Z,65.40
2019-04-07T11:11:23.176Z,63.53
2019-04-07T11:14:04.613Z,71.17
2019-04-07T11:16:45.278Z,70.83
2019-04-07T11:19:19.899Z,68.03
2019-04-07T11:21:51.698Z,68.80
2019-04-07T11:24:23.947Z,69.97
2019-04-07T11:26:55.911Z,69.60
2019-04-07T11:29:40.043Z,66.53
2019-04-07T11:32:26.989Z,64.90
2019-04-07T11:34:58.548Z,62.07
2019-04-07T11:37:36.463Z,65.43
2019-04-07T11:40:14.599Z,68.60
2019-04-07T11:42:49.004Z,66.33
2019-04-07T11:45:36.753Z,61.37
2019-04-07T11:48:25.830Z,64.40
2019-04-07T11:51:03.484Z,68.00
2019-04-07T11:53:39.403Z,63.77
2019-04-07T11:56:20.697Z,60.83
2019-04-07T11:59:09.130Z,65.90
2019-04-07T12:01:49.717Z,66.70
2019-04-07T12:04:38.575Z,63.90
2019-04-07T12:07:20.238Z,55.80
2019-04-07T12:09:58.457Z,57.37
2019-04-07T12:12:47.383Z,54.13
2019-04-07T12:15:26.873Z,49.23
2019-04-07T12:18:00.327Z,48.53
2019-04-07T12:20:48.315Z,49.33
2019-04-07T12:23:23.322Z,54.03
2019-04-07T12:25:52.967Z,46.43
2019-04-07T12:28:33.415Z,50.60
2019-04-07T12:31:05.385Z,48.80
2019-04-07T12:33:52.781Z,49.17
2019-04-07T12:36:30.222Z,50.10
2019-04-07T12:38:57.570Z,45.40
2019-04-07T12:41:35.774Z,47.90
2019-04-07T12:44:10.471Z,52.33
2019-04-07T12:46:41.890Z,48.03
2019-04-07T12:49:19.191Z,46.43
2019-04-07T12:51:55.878Z,42.43
2019-04-07T12:54:26.737Z,47.00
2019-04-07T12:57:06.237Z,38.33
2019-04-07T12:59:51.384Z,41.73
2019-04-07T13:02:25.845Z,44.40
2019-04-07T13:05:07.656Z,43.03
2019-04-07T13:07:51.021Z,39.60
2019-04-07T13:10:34.373Z,47.00
2019-04-07T13:13:06.917Z,40.03
2019-04-07T13:15:57.103Z,38.07
2019-04-07T13:18:31.413Z,36.93
2019-04-07T13:21:04.375Z,40.80
2019-04-07T13:23:38.564Z,42.83
2019-04-07T13:26:16.467Z,44.47
2019-04-07T13:28:50.869Z,43.67
2019-04-07T13:31:22.397Z,43.60
2019-04-07T13:34:01.060Z,41.63
2019-04-07T13:36:41.892Z,41.30
2019-04-07T13:39:36.634Z,42.03
2019-04-07T13:42:07.754Z,38.40
2019-04-07T13:44:48.414Z,44.10
2019-04-07T13:47:23.167Z,37.13
2019-04-07T13:49:57.322Z,46.47
2019-04-07T13:52:27.892Z,50.77
2019-04-07T13:55:07.512Z,43.87
2019-04-07T13:57:40.560Z,42.20
2019-04-07T14:00:17.136Z,44.10
2019-04-07T14:03:04.815Z,38.33
2019-04-07T14:05:38.857Z,40.23
2019-04-07T14:08:10.268Z,41.27
2019-04-07T14:10:58.305Z,42.73
2019-04-07T14:13:40.724Z,43.57
2019-04-07T14:16:17.623Z,46.90
2019-04-07T14:19:07.713Z,45.33
2019-04-07T14:21:39.638Z,43.60
2019-04-07T14:24:13.980Z,50.10
2019-04-07T14:26:48.938Z,45.63
2019-04-07T14:29:20.525Z,42.30
2019-04-07T14:31:55.515Z,41.63
2019-04-07T14:34:27.312Z,48.83
2019-04-07T14:36:59.050Z,43.00
2019-04-07T14:39:39.450Z,41.83
2019-04-07T14:42:16.470Z,45.50
2019-04-07T14:44:51.171Z,48.33
2019-04-07T14:47:32.383Z,42.83
2019-04-07T14:50:13.110Z,45.23
2019-04-07T14:52:44.776Z,39.60
2019-04-07T14:55:34.562Z,43.30
2019-04-07T14:58:19.018Z,40.80
2019-04-07T15:01:01.820Z,44.83
2019-04-07T15:03:28.658Z,40.83
2019-04-07T15:05:59.613Z,40.83
2019-04-07T15:08:34.353Z,40.83
2019-04-07T15:11:24.960Z,41.70
2019-04-07T15:13:58.740Z,41.97
2019-04-07T15:16:26.412Z,41.93
2019-04-07T15:18:56.638Z,39.33
2019-04-07T15:21:27.362Z,43.70
2019-04-07T15:23:57.319Z,42.73
2019-04-07T15:26:29.302Z,41.67
2019-04-07T15:29:02.425Z,46.13
2019-04-07T15:31:30.917Z,46.13
2019-04-07T15:34:00.971Z,43.20
2019-04-07T15:36:32.155Z,49.07
2019-04-07T15:39:02.050Z,45.83
2019-04-07T15:41:32.669Z,48.57
2019-04-07T15:44:06.225Z,49.63
2019-04-07T15:46:34.429Z,44.30
2019-04-07T15:49:06.484Z,45.27
2019-04-07T15:51:36.238Z,51.30
2019-04-07T15:54:06.217Z,56.63
2019-04-07T15:56:36.798Z,43.60
2019-04-07T15:59:07.553Z,45.03
2019-04-07T16:01:38.729Z,51.33
2019-04-07T16:04:09.601Z,52.80
2019-04-07T16:06:39.461Z,48.23
2019-04-07T16:09:16.664Z,46.97
2019-04-07T16:11:41.317Z,42.60
2019-04-07T16:14:13.631Z,52.07
2019-04-07T16:16:42.643Z,57.40
2019-04-07T16:19:17.593Z,55.23
2019-04-07T16:21:44.328Z,48.97
2019-04-07T16:24:14.021Z,55.50
2019-04-07T16:26:44.381Z,58.07
2019-04-07T16:29:17.540Z,52.87
2019-04-07T16:31:46.637Z,49.53
2019-04-07T16:34:16.624Z,53.20
2019-04-07T16:36:46.561Z,55.87
2019-04-07T16:39:16.201Z,53.37
2019-04-07T16:41:48.221Z,53.30
2019-04-07T16:44:17.466Z,58.77
2019-04-07T16:46:47.252Z,51.93
2019-04-07T16:49:18.887Z,53.97
2019-04-07T16:51:49.309Z,53.57
2019-04-07T16:54:28.711Z,62.10
2019-04-07T16:56:58.760Z,63.17
2019-04-07T16:59:28.537Z,54.37
2019-04-07T17:01:59.114Z,57.97
2019-04-07T17:04:29.987Z,49.73
2019-04-07T17:07:04.103Z,51.37
2019-04-07T17:09:33.445Z,53.23
2019-04-07T17:12:03.551Z,51.90
2019-04-07T17:14:36.041Z,57.27
2019-04-07T17:17:05.863Z,50.90
2019-04-07T17:19:35.924Z,55.20
2019-04-07T17:22:05.835Z,55.30
2019-04-07T17:24:35.678Z,56.53
2019-04-07T17:27:09.205Z,60.27
2019-04-07T17:29:37.014Z,54.50
2019-04-07T17:32:08.079Z,60.73
2019-04-07T17:34:41.763Z,56.57
2019-04-07T17:37:09.657Z,58.13
2019-04-07T17:39:57.290Z,55.33
2019-04-07T17:42:28.324Z,58.60
2019-04-07T17:45:03.341Z,57.00
2019-04-07T17:47:36.483Z,59.97
2019-04-07T17:50:12.861Z,57.07
2019-04-07T17:53:00.486Z,65.90
2019-04-07T17:55:34.412Z,63.00
2019-04-07T17:58:22.228Z,61.73
2019-04-07T18:00:59.752Z,63.67
2019-04-07T18:03:31.409Z,61.33
2019-04-07T18:06:16.880Z,64.70
2019-04-07T18:09:03.401Z,56.50
2019-04-07T18:11:32.928Z,65.00
2019-04-07T18:14:16.944Z,58.83
2019-04-07T18:16:54.789Z,65.73
2019-04-07T18:19:33.855Z,61.43
2019-04-07T18:22:23.521Z,63.50
2019-04-07T18:25:04.914Z,64.57
2019-04-07T18:27:36.632Z,60.90
2019-04-07T18:30:21.352Z,66.87
2019-04-07T18:32:55.758Z,61.90
2019-04-07T18:35:30.872Z,61.23
2019-04-07T18:38:17.329Z,58.30
2019-04-07T18:41:10.098Z,63.00
2019-04-07T18:44:00.750Z,56.70
2019-04-07T18:46:29.030Z,59.43
2019-04-07T18:49:03.234Z,57.80
2019-04-07T18:51:50.620Z,57.60
2019-04-07T18:54:22.713Z,64.77
2019-04-07T18:56:58.956Z,63.03
2019-04-07T18:59:35.012Z,63.20
2019-04-07T19:02:23.442Z,60.03
2019-04-07T19:04:58.927Z,62.93
2019-04-07T19:07:41.656Z,59.10
2019-04-07T19:10:29.616Z,57.03
2019-04-07T19:13:14.215Z,56.07
2019-04-07T19:15:47.550Z,70.63
2019-04-07T19:18:27.198Z,59.20
2019-04-07T19:21:18.336Z,60.07
2019-04-07T19:24:10.329Z,64.23
2019-04-07T19:27:11.850Z,63.83
2019-04-07T19:29:43.067Z,70.27
2019-04-07T19:32:21.038Z,61.30
2019-04-07T19:34:53.138Z,64.90
2019-04-07T19:37:26.288Z,64.57
2019-04-07T19:40:10.026Z,73.03
2019-04-07T19:43:01.731Z,71.13
2019-04-07T19:45:33.346Z,66.43
2019-04-07T19:48:19.975Z,66.27
2019-04-07T19:50:58.598Z,64.83
2019-04-07T19:53:45.837Z,68.50
2019-04-07T19:56:19.194Z,70.67
2019-04-07T19:58:53.609Z,71.20
2019-04-07T20:01:27.456Z,67.27
2019-04-07T20:04:05.320Z,71.00
2019-04-07T20:06:39.814Z,66.93
2019-04-07T20:09:12.683Z,74.13
2019-04-07T20:11:48.010Z,72.80
2019-04-07T20:17:17.377Z,69.93
2019-04-07T20:19:55.642Z,72.53
2019-04-07T20:22:43.673Z,75.40
2019-04-07T20:25:21.139Z,71.70
2019-04-07T20:27:56.028Z,75.17
2019-04-07T20:30:45.575Z,72.63
2019-04-07T20:33:29.930Z,76.27
2019-04-07T20:36:02.742Z,81.97
2019-04-07T20:38:34.135Z,76.03
2019-04-07T20:41:10.372Z,72.80
2019-04-07T20:43:55.608Z,79.90
2019-04-07T20:46:36.358Z,78.73
2019-04-07T20:49:20.133Z,80.77
2019-04-07T20:51:58.467Z,78.87
2019-04-07T20:54:35.850Z,76.63
2019-04-07T20:57:19.241Z,78.07
2019-04-07T21:00:05.582Z,87.50
2019-04-07T21:02:37.740Z,80.47
2019-04-07T21:05:12.370Z,79.67
2019-04-07T21:08:01.057Z,78.57
2019-04-07T21:10:41.500Z,79.00
2019-04-07T21:13:30.096Z,83.37
2019-04-07T21:16:08.222Z,79.37
2019-04-07T21:18:56.442Z,72.03
2019-04-07T21:21:34.591Z,74.43
2019-04-07T21:24:06.514Z,77.23
2019-04-07T21:26:37.895Z,79.93
2019-04-07T21:29:16.085Z,89.00
2019-04-07T21:31:47.931Z,83.33
2019-04-07T21:34:20.765Z,91.33
2019-04-07T21:37:01.224Z,87.00
2019-04-07T21:39:33.128Z,92.73
2019-04-07T21:42:05.039Z,81.40
2019-04-07T21:44:42.161Z,85.90
2019-04-07T21:47:29.841Z,82.60
2019-04-07T21:50:18.935Z,83.53
2019-04-07T21:53:06.627Z,86.37
2019-04-07T21:55:43.079Z,81.03
2019-04-07T21:58:14.518Z,88.73
2019-04-07T22:01:05.232Z,85.30
2019-04-07T22:03:52.409Z,89.90
2019-04-07T22:06:26.530Z,88.07
2019-04-07T22:08:58.055Z,87.67
2019-04-07T22:11:30.268Z,88.77
2019-04-07T22:14:00.997Z,94.73
2019-04-07T22:16:32.735Z,96.23
2019-04-07T22:19:02.358Z,88.10
2019-04-07T22:21:32.198Z,86.90
2019-04-07T22:24:03.000Z,86.67
2019-04-07T22:26:33.604Z,76.23
2019-04-07T22:29:05.212Z,93.33
2019-04-07T22:31:36.722Z,91.60
2019-04-07T22:34:06.912Z,93.07
2019-04-07T22:36:36.721Z,105.83
2019-04-07T22:39:07.787Z,94.37
2019-04-07T22:41:41.113Z,97.33
2019-04-07T22:44:09.248Z,91.87
2019-04-07T22:46:39.591Z,98.73
2019-04-07T22:49:09.452Z,96.70
2019-04-07T22:51:43.079Z,105.83
2019-04-07T22:54:16.840Z,101.37
2019-04-07T22:56:46.741Z,106.10
2019-04-07T22:59:17.505Z,115.10
2019-04-07T23:01:47.386Z,100.70
2019-04-07T23:04:18.186Z,98.77
2019-04-07T23:06:48.140Z,96.47
2019-04-07T23:09:17.869Z,102.80
2019-04-07T23:11:48.256Z,106.90
2019-04-07T23:14:18.006Z,101.97
2019-04-07T23:16:48.548Z,104.67
2019-04-07T23:19:18.554Z,99.53
2019-04-07T23:21:49.127Z,111.53
2019-04-07T23:24:19.277Z,114.70
2019-04-07T23:26:49.120Z,124.07
2019-04-07T23:29:20.190Z,114.20
2019-04-07T23:31:49.948Z,105.50
2019-04-07T23:34:19.709Z,109.20
2019-04-07T23:36:49.873Z,115.47
2019-04-07T23:39:19.670Z,112.07
2019-04-07T23:41:49.375Z,114.57
2019-04-07T23:44:19.124Z,105.57
2019-04-07T23:46:48.976Z,102.83
2019-04-07T23:49:19.112Z,97.83
2019-04-07T23:55:10.564Z,93.57
2019-04-07T23:57:40.538Z,93.63
